Aniara — SKJC — position and weather

sailwx.info

Track history (hours):
 
Tides and Currents Weather Stations Pressure Air Temp Water Temp Dewpoint Dewpoint Depression Visibility Wind Speed Wind Dir Waves Ship Positions

Aniara

Last reported at 2018-Apr-08 23:46 UTC. Time now 2018-Apr-21 15:32 UTC.
Position N 28°06' W 016°14'.
Warning: this ship's position is 12 days out of date.

Length 232 m; draft 9.8 m.

Type: Cargo ship. MMSI: 266282000.

Date/timePositionNaut miles runAvg speedWind from/ knotsBaromVisibWave heightAir tempDewpointWater temp
2018-Apr-08 23:46N 28°06' W 016°14'518.7
2018-Apr-08 23:30N 28°10' W 016°11'918.7
2018-Apr-08 23:00N 28°18' W 016°04'918.1
2018-Apr-08 22:30N 28°25' W 015°57'1017.9
2018-Apr-08 21:55N 28°33' W 015°50'1017.8
2018-Apr-08 21:23N 28°40' W 015°43'717.7
2018-Apr-08 21:00N 28°47' W 015°41'917.6
2018-Apr-08 20:30N 28°55' W 015°38'  
2018-Apr-05 10:36N 49°50' W 003°26'216.1
2018-Apr-05 10:28N 49°51' W 003°23'715.8
2018-Apr-05 09:59N 49°55' W 003°13'815.7
2018-Apr-05 09:30N 49°58' W 003°03'815.4
2018-Apr-05 09:00N 50°02' W 002°52'715.2
2018-Apr-05 08:30N 50°04' W 002°41'3716.7
2018-Apr-05 06:18N 50°18' W 001°48'518.6
2018-Apr-05 06:01N 50°21' W 001°40'1719.1
2018-Apr-05 05:05N 50°28' W 001°16'219.5
2018-Apr-05 04:58N 50°29' W 001°12'919.1
2018-Apr-05 04:30N 50°33' W 000°60'714.3
2018-Apr-05 04:00N 50°40' W 000°59'611.9
2018-Apr-05 03:30N 50°44' W 001°05'714.0
2018-Apr-05 03:01N 50°46' W 001°16'5 9.3
2018-Apr-05 02:30N 50°50' W 001°19'4 7.5
2018-Apr-05 02:00N 50°53' W 001°24'0 0.0
2018-Apr-05 01:29N 50°53' W 001°24'0 0.0
2018-Apr-05 00:59N 50°53' W 001°24'0 0.0
2018-Apr-05 00:29N 50°53' W 001°24'0 0.0
2018-Apr-04 23:59N 50°53' W 001°24'0 0.0
2018-Apr-04 23:29N 50°53' W 001°24'0 0.0
2018-Apr-04 22:59N 50°53' W 001°24'0 0.0
2018-Apr-04 22:29N 50°53' W 001°24'0 0.0
2018-Apr-04 21:59N 50°53' W 001°24'0 0.0
2018-Apr-04 21:29N 50°53' W 001°24'0 0.0
2018-Apr-04 20:59N 50°53' W 001°24'0 0.0
2018-Apr-04 20:29N 50°53' W 001°24'0 0.0
2018-Apr-04 19:59N 50°53' W 001°24'0 0.0
2018-Apr-04 19:29N 50°53' W 001°24'0 0.0
2018-Apr-04 18:59N 50°53' W 001°24'0 0.0
2018-Apr-04 18:29N 50°53' W 001°24'0 0.0
2018-Apr-04 17:59N 50°53' W 001°24'0 0.0
2018-Apr-04 17:29N 50°53' W 001°24'0 0.0
2018-Apr-04 16:59N 50°53' W 001°24'0 0.0
2018-Apr-04 16:29N 50°53' W 001°24'0 0.0
2018-Apr-04 15:59N 50°53' W 001°24'0 0.5
2018-Apr-04 15:30N 50°53' W 001°24'3 5.3
2018-Apr-04 15:00N 50°51' W 001°20'4 8.3
2018-Apr-04 14:30N 50°47' W 001°19'611.0
2018-Apr-04 14:01N 50°46' W 001°11'611.0
2018-Apr-04 13:30N 50°44' W 001°03'611.3
2018-Apr-04 13:00N 50°39' W 000°57'3 6.7
2018-Apr-04 12:31N 50°36' W 000°59'2 3.3
2018-Apr-04 12:01N 50°34' W 000°59'2 3.6
2018-Apr-04 11:31N 50°36' W 001°00'2 3.8
2018-Apr-04 11:00N 50°37' W 001°03'0 0.2
2018-Apr-04 10:31N 50°37' W 001°03'0 0.0
2018-Apr-04 10:00N 50°37' W 001°03'0 0.0
2018-Apr-04 09:28N 50°37' W 001°03'0 0.0
2018-Apr-04 08:58N 50°37' W 001°03'0 0.0
2018-Apr-04 08:28N 50°37' W 001°03'0 0.1
2018-Apr-04 07:58N 50°37' W 001°03'0 0.1
2018-Apr-04 07:28N 50°37' W 001°03'0 0.2
2018-Apr-04 06:58N 50°37' W 001°03'0 0.0
2018-Apr-04 06:28N 50°37' W 001°03'0 0.2
2018-Apr-04 05:40N 50°37' W 001°03'0 0.0
2018-Apr-04 05:28N 50°37' W 001°03'0 0.0
2018-Apr-04 04:58N 50°37' W 001°03'0 0.0
2018-Apr-04 04:28N 50°37' W 001°03'0 0.0
2018-Apr-04 03:58N 50°37' W 001°03'0 0.1
2018-Apr-04 03:28N 50°37' W 001°03'0 0.1
2018-Apr-04 02:58N 50°37' W 001°03'0 0.0
2018-Apr-04 02:28N 50°37' W 001°03'0 0.1
2018-Apr-04 01:40N 50°37' W 001°03'0 0.2
2018-Apr-04 01:28N 50°37' W 001°03'0 0.3
2018-Apr-04 01:01N 50°37' W 001°03'3 6.1
2018-Apr-04 00:30N 50°35' W 001°00'915.1
2018-Apr-03 23:53N 50°26' W 000°54'614.7
2018-Apr-03 23:28N 50°21' W 000°49'714.4
2018-Apr-03 22:57N 50°14' W 000°43'814.1
2018-Apr-03 22:22N 50°07' W 000°37'514.0
2018-Apr-03 22:00N 50°03' W 000°33'714.1
2018-Apr-03 21:30N 49°56' W 000°29'714.2
2018-Apr-03 21:00N 49°50' W 000°25'714.4
2018-Apr-03 20:30N 49°43' W 000°21'713.8
2018-Apr-03 20:00N 49°38' W 000°14'815.2
2018-Apr-03 19:30N 49°34' W 000°04'713.4
2018-Apr-03 19:01N 49°29' E 000°04'4 7.7
2018-Apr-03 18:30N 49°28' E 000°10'0 0.8
2018-Apr-03 18:00N 49°29' E 000°10'0 1.0
2018-Apr-03 17:30N 49°29' E 000°11'1 2.0
2018-Apr-03 16:58N 49°28' E 000°13'0 0.0
2018-Apr-03 16:28N 49°28' E 000°13'0 0.0
2018-Apr-03 15:58N 49°28' E 000°13'0 0.0
2018-Apr-03 15:25N 49°28' E 000°13'0 0.0
2018-Apr-03 14:58N 49°28' E 000°13'0 0.0
2018-Apr-03 14:25N 49°28' E 000°13'0 0.0
2018-Apr-03 13:58N 49°28' E 000°13'0 0.0
2018-Apr-03 13:28N 49°28' E 000°13'0 0.0
2018-Apr-03 12:58N 49°28' E 000°13'0 0.0
2018-Apr-03 12:28N 49°28' E 000°13'0 0.0
2018-Apr-03 11:58N 49°28' E 000°13'0 0.0
2018-Apr-03 11:28N 49°28' E 000°13'0 0.0
2018-Apr-03 10:58N 49°28' E 000°13'0 0.0
2018-Apr-03 10:28N 49°28' E 000°13'0 0.0
2018-Apr-03 09:58N 49°28' E 000°13'0 0.0
2018-Apr-03 09:28N 49°28' E 000°13'0 0.0
2018-Apr-03 08:58N 49°28' E 000°13'0 0.0
2018-Apr-03 08:28N 49°28' E 000°13'0 0.0
2018-Apr-03 07:58N 49°28' E 000°13'0 0.0
2018-Apr-03 07:28N 49°28' E 000°13'0 0.0
2018-Apr-03 06:58N 49°28' E 000°13'0 0.0
2018-Apr-03 06:28N 49°28' E 000°13'0 0.0
2018-Apr-03 05:58N 49°28' E 000°13'0 0.0
2018-Apr-03 05:28N 49°28' E 000°13'0 0.0
2018-Apr-03 04:58N 49°28' E 000°13'0 0.0
2018-Apr-03 04:28N 49°28' E 000°13'0 0.0
2018-Apr-03 03:58N 49°28' E 000°13'0 0.0
2018-Apr-03 03:28N 49°28' E 000°13'0 0.0
2018-Apr-03 02:58N 49°28' E 000°13'0 0.0
2018-Apr-03 02:28N 49°28' E 000°13'0 0.0
2018-Apr-03 01:58N 49°28' E 000°13'0 0.0
2018-Apr-03 01:28N 49°28' E 000°13'0 0.0
2018-Apr-03 00:58N 49°28' E 000°13'0 0.0
2018-Apr-03 00:28N 49°28' E 000°13'0 0.0
2018-Apr-02 23:58N 49°28' E 000°13'0 0.0
2018-Apr-02 23:28N 49°28' E 000°13'0 0.0
2018-Apr-02 22:58N 49°28' E 000°13'0 0.0
2018-Apr-02 22:28N 49°28' E 000°13'0 0.0
2018-Apr-02 21:58N 49°28' E 000°13'0 0.0
2018-Apr-02 21:28N 49°28' E 000°13'0 0.0
2018-Apr-02 20:58N 49°28' E 000°13'0 0.0
2018-Apr-02 20:28N 49°28' E 000°13'0 0.0
2018-Apr-02 19:58N 49°28' E 000°13'0 0.0
2018-Apr-02 19:28N 49°28' E 000°13'0 0.0
2018-Apr-02 18:58N 49°28' E 000°13'0 0.0
2018-Apr-02 18:28N 49°28' E 000°13'0 0.0
2018-Apr-02 17:58N 49°28' E 000°13'0 0.0
2018-Apr-02 17:28N 49°28' E 000°13'0 0.0
2018-Apr-02 16:58N 49°28' E 000°13'0 0.0
2018-Apr-02 16:28N 49°28' E 000°13'0 0.0
2018-Apr-02 15:58N 49°28' E 000°13'0 0.0
2018-Apr-02 15:28N 49°28' E 000°13'0 0.0
2018-Apr-02 14:58N 49°28' E 000°13'0 0.0
2018-Apr-02 14:28N 49°28' E 000°13'0 0.0
2018-Apr-02 13:58N 49°28' E 000°13'0 0.0
2018-Apr-02 13:28N 49°28' E 000°13'0 0.0
2018-Apr-02 12:58N 49°28' E 000°13'0 0.0
2018-Apr-02 12:28N 49°28' E 000°13'0 0.0
2018-Apr-02 11:58N 49°28' E 000°13'0 0.0
2018-Apr-02 11:28N 49°28' E 000°13'0 0.0
2018-Apr-02 10:58N 49°28' E 000°13'0 0.0
2018-Apr-02 10:28N 49°28' E 000°13'0 0.0
2018-Apr-02 09:58N 49°28' E 000°13'0 0.0
2018-Apr-02 09:28N 49°28' E 000°13'0 0.0
2018-Apr-02 08:58N 49°28' E 000°13'0 0.0
2018-Apr-02 08:28N 49°28' E 000°13'0 0.0
2018-Apr-02 07:58N 49°28' E 000°13'0 0.0
2018-Apr-02 07:28N 49°28' E 000°13'0 0.0
2018-Apr-02 06:58N 49°28' E 000°13'0 0.0
2018-Apr-02 06:28N 49°28' E 000°13'0 0.0
2018-Apr-02 05:58N 49°28' E 000°13'0 0.0
2018-Apr-02 05:28N 49°28' E 000°13'0 0.0
2018-Apr-02 04:58N 49°28' E 000°13'0 0.0
2018-Apr-02 04:28N 49°28' E 000°13'0 0.0
2018-Apr-02 03:58N 49°28' E 000°13'0 0.0
2018-Apr-02 03:28N 49°28' E 000°13'0 0.0
2018-Apr-02 02:58N 49°28' E 000°13'0 0.0
2018-Apr-02 02:28N 49°28' E 000°13'0 0.0
2018-Apr-02 01:58N 49°28' E 000°13'0 0.0
2018-Apr-02 01:28N 49°28' E 000°13'0 0.0
2018-Apr-02 00:58N 49°28' E 000°13'0 0.0
2018-Apr-02 00:28N 49°28' E 000°13'0 0.0
2018-Apr-01 23:58N 49°28' E 000°13'0 0.0
2018-Apr-01 23:28N 49°28' E 000°13'0 0.0
2018-Apr-01 22:58N 49°28' E 000°13'0 0.0
2018-Apr-01 22:28N 49°28' E 000°13'0 0.0
2018-Apr-01 21:58N 49°28' E 000°13'0 0.0
2018-Apr-01 21:28N 49°28' E 000°13'0 0.0
2018-Apr-01 20:58N 49°28' E 000°13'0 0.0
2018-Apr-01 20:28N 49°28' E 000°13'0 0.0
2018-Apr-01 19:58N 49°28' E 000°13'0 0.0
2018-Apr-01 19:28N 49°28' E 000°13'0 0.0
2018-Apr-01 18:58N 49°28' E 000°13'0 0.0
2018-Apr-01 18:28N 49°28' E 000°13'0 0.0
2018-Apr-01 17:58N 49°28' E 000°13'0 0.0
2018-Apr-01 17:28N 49°28' E 000°13'0 0.0
2018-Apr-01 16:58N 49°28' E 000°13'0 0.0
2018-Apr-01 16:28N 49°28' E 000°13'0 0.0
2018-Apr-01 15:58N 49°28' E 000°13'0 0.0
2018-Apr-01 15:28N 49°28' E 000°13'0 0.0
2018-Apr-01 14:58N 49°28' E 000°13'0 0.0
2018-Apr-01 14:28N 49°28' E 000°13'0 0.0
2018-Apr-01 13:58N 49°28' E 000°13'0 0.0
2018-Apr-01 13:28N 49°28' E 000°13'0 0.0
2018-Apr-01 12:58N 49°28' E 000°13'0 0.0
2018-Apr-01 12:28N 49°28' E 000°13'0 0.0
2018-Apr-01 11:58N 49°28' E 000°13'0 0.0
2018-Apr-01 11:28N 49°28' E 000°13'0 0.0
2018-Apr-01 10:58N 49°28' E 000°13'0 0.0
2018-Apr-01 10:28N 49°28' E 000°13'0 0.0
2018-Apr-01 09:58N 49°28' E 000°13'0 0.0
2018-Apr-01 09:28N 49°28' E 000°13'0 0.0
2018-Apr-01 08:58N 49°28' E 000°13'0 0.0
2018-Apr-01 08:28N 49°28' E 000°13'0 0.0
2018-Apr-01 07:58N 49°28' E 000°13'0 0.0
2018-Apr-01 07:28N 49°28' E 000°13'0 0.0
2018-Apr-01 06:58N 49°28' E 000°13'0 0.0
2018-Apr-01 06:28N 49°28' E 000°13'0 0.0
2018-Apr-01 05:58N 49°28' E 000°13'0 0.0
2018-Apr-01 05:28N 49°28' E 000°13'0 0.0
2018-Apr-01 04:58N 49°28' E 000°13'0 0.0
2018-Apr-01 04:28N 49°28' E 000°13'0 0.0
2018-Apr-01 03:58N 49°28' E 000°13'0 0.0
2018-Apr-01 03:28N 49°28' E 000°13'1 2.6
2018-Apr-01 03:00N 49°29' E 000°11'0 0.6
2018-Apr-01 02:30N 49°29' E 000°10'1 2.3
2018-Apr-01 02:00N 49°28' E 000°09'5 9.7
2018-Apr-01 01:31N 49°30' E 000°02'611.9
2018-Apr-01 01:01N 49°32' W 000°07'611.4
2018-Apr-01 00:31N 49°33' W 000°15'612.5
2018-Apr-01 00:00N 49°38' W 000°21'714.1
2018-Mar-31 23:30N 49°45' W 000°24'915.5
2018-Mar-31 22:53N 49°54' W 000°19'616.0
2018-Mar-31 22:29N 50°00' W 000°15'816.2
2018-Mar-31 22:00N 50°08' W 000°11'916.1
2018-Mar-31 21:26N 50°16' W 000°08'715.6
2018-Mar-31 20:58N 50°23' W 000°04'714.3
2018-Mar-31 20:30N 50°28' E 000°03'815.4
2018-Mar-31 20:00N 50°30' E 000°15'815.4
2018-Mar-31 19:30N 50°32' E 000°27'815.3
2018-Mar-31 19:00N 50°35' E 000°38'815.6
2018-Mar-31 18:30N 50°39' E 000°48'816.0
2018-Mar-31 18:00N 50°44' E 000°58'1916.3
2018-Mar-31 16:52N 50°56' E 001°20'617.7
2018-Mar-31 16:30N 51°01' E 001°27'816.9
2018-Mar-31 16:00N 51°07' E 001°37'816.5
2018-Mar-31 15:30N 51°13' E 001°46'816.2
2018-Mar-31 15:00N 51°20' E 001°53'714.6
2018-Mar-31 14:30N 51°25' E 002°01'816.8
2018-Mar-31 14:00N 51°22' E 002°13'815.4
2018-Mar-31 13:29N 51°22' E 002°26'715.4
2018-Mar-31 13:00N 51°23' E 002°38'713.5
2018-Mar-31 12:29N 51°22' E 002°49'715.1
2018-Mar-31 12:00N 51°24' E 003°01'612.5
2018-Mar-31 11:30N 51°23' E 003°10'3 6.3
2018-Mar-31 11:00N 51°20' E 003°13'0 0.0
2018-Mar-31 10:30N 51°20' E 003°13'1 2.0
2018-Mar-31 09:58N 51°19' E 003°14'0 0.0
2018-Mar-31 09:28N 51°19' E 003°14'0 0.0
2018-Mar-31 08:58N 51°19' E 003°14'0 0.0
2018-Mar-31 08:25N 51°19' E 003°14'0 0.0
2018-Mar-31 07:58N 51°19' E 003°14'0 0.0
2018-Mar-31 07:28N 51°19' E 003°14'0 0.0
2018-Mar-31 06:58N 51°19' E 003°14'0 0.0
2018-Mar-31 06:28N 51°19' E 003°14'0 0.0
2018-Mar-31 05:58N 51°19' E 003°14'0 0.0
2018-Mar-31 05:28N 51°19' E 003°14'0 0.0
2018-Mar-31 04:58N 51°19' E 003°14'0 0.0
2018-Mar-31 04:28N 51°19' E 003°14'0 0.0
2018-Mar-31 03:55N 51°19' E 003°14'0 0.0
2018-Mar-31 03:28N 51°19' E 003°14'0 0.0
2018-Mar-31 02:58N 51°19' E 003°14'0 0.0
2018-Mar-31 02:28N 51°19' E 003°14'0 0.0
2018-Mar-31 01:58N 51°19' E 003°14'0 0.0
2018-Mar-31 01:28N 51°19' E 003°14'0 0.0
2018-Mar-31 00:58N 51°19' E 003°14'0 0.0
2018-Mar-31 00:28N 51°19' E 003°14'0 0.0
2018-Mar-30 23:58N 51°19' E 003°14'0 0.0
2018-Mar-30 23:28N 51°19' E 003°14'0 0.0
2018-Mar-30 22:58N 51°19' E 003°14'0 0.0
2018-Mar-30 22:28N 51°19' E 003°14'0 0.0
2018-Mar-30 21:55N 51°19' E 003°14'0 0.0
2018-Mar-30 21:28N 51°19' E 003°14'0 0.0
2018-Mar-30 20:58N 51°19' E 003°14'0 0.0
2018-Mar-30 20:28N 51°19' E 003°14'0 0.0
2018-Mar-30 19:58N 51°19' E 003°14'0 0.0
2018-Mar-30 19:28N 51°19' E 003°14'0 0.0
2018-Mar-30 18:58N 51°19' E 003°14'0 0.0
2018-Mar-30 18:28N 51°19' E 003°14'0 0.0
2018-Mar-30 17:55N 51°19' E 003°14'0 0.0
2018-Mar-30 17:28N 51°19' E 003°14'0 0.0
2018-Mar-30 16:58N 51°19' E 003°14'0 0.0
2018-Mar-30 16:28N 51°19' E 003°14'0 0.0
2018-Mar-30 15:58N 51°19' E 003°14'0 0.0
2018-Mar-30 15:28N 51°19' E 003°14'0 0.0
2018-Mar-30 14:58N 51°19' E 003°14'0 0.0
2018-Mar-30 14:28N 51°19' E 003°14'0 0.0
2018-Mar-30 13:58N 51°19' E 003°14'0 0.0
2018-Mar-30 13:28N 51°19' E 003°14'0 0.0
2018-Mar-30 12:58N 51°19' E 003°14'0 0.0
2018-Mar-30 12:28N 51°19' E 003°14'0 0.0
2018-Mar-30 11:58N 51°19' E 003°14'0 0.0
2018-Mar-30 11:28N 51°19' E 003°14'0 0.0
2018-Mar-30 10:58N 51°19' E 003°14'0 0.0
2018-Mar-30 10:28N 51°19' E 003°14'0 0.0
2018-Mar-30 09:58N 51°19' E 003°14'0 0.0
2018-Mar-30 09:28N 51°19' E 003°14'0 0.0
2018-Mar-30 08:58N 51°19' E 003°14'0 0.0
2018-Mar-30 08:28N 51°19' E 003°14'0 0.0
2018-Mar-30 07:58N 51°19' E 003°14'0 0.0
2018-Mar-30 07:28N 51°19' E 003°14'0 0.0
2018-Mar-30 06:58N 51°19' E 003°14'0 0.0
2018-Mar-30 06:28N 51°19' E 003°14'0 0.0
2018-Mar-30 05:55N 51°19' E 003°14'0 0.0
2018-Mar-30 05:28N 51°19' E 003°14'0 0.0
2018-Mar-30 04:58N 51°19' E 003°14'0 0.0
2018-Mar-30 04:28N 51°19' E 003°14'0 0.0
2018-Mar-30 03:58N 51°19' E 003°14'0 0.0
2018-Mar-30 03:28N 51°19' E 003°14'0 0.0
2018-Mar-30 02:58N 51°19' E 003°14'0 0.0
2018-Mar-30 02:28N 51°19' E 003°14'0 0.0
2018-Mar-30 01:58N 51°19' E 003°14'0 0.0
2018-Mar-30 01:28N 51°19' E 003°14'0 0.0
2018-Mar-30 00:58N 51°19' E 003°14'0 0.0
2018-Mar-30 00:28N 51°19' E 003°14'0 0.0
2018-Mar-29 23:58N 51°19' E 003°14'  
Track history (hours):
 
Tides and Currents Weather Stations Pressure Air Temp Water Temp Dewpoint Dewpoint Depression Visibility Wind Speed Wind Dir Waves Ship Positions

Aniara

Last reported at 2018-Apr-08 23:46 UTC. Time now 2018-Apr-21 15:32 UTC.
Position N 28°06' W 016°14'.
Warning: this ship's position is 12 days out of date.

Length 232 m; draft 9.8 m.

Type: Cargo ship. MMSI: 266282000.

Date/timePositionNaut miles runAvg speedWind from/ knotsBaromVisibWave heightAir tempDewpointWater temp
2018-Apr-08 23:46N 28°06' W 016°14'518.7
2018-Apr-08 23:30N 28°10' W 016°11'918.7
2018-Apr-08 23:00N 28°18' W 016°04'918.1
2018-Apr-08 22:30N 28°25' W 015°57'1017.9
2018-Apr-08 21:55N 28°33' W 015°50'1017.8
2018-Apr-08 21:23N 28°40' W 015°43'717.7
2018-Apr-08 21:00N 28°47' W 015°41'917.6
2018-Apr-08 20:30N 28°55' W 015°38'  
2018-Apr-05 10:36N 49°50' W 003°26'216.1
2018-Apr-05 10:28N 49°51' W 003°23'715.8
2018-Apr-05 09:59N 49°55' W 003°13'815.7
2018-Apr-05 09:30N 49°58' W 003°03'815.4
2018-Apr-05 09:00N 50°02' W 002°52'715.2
2018-Apr-05 08:30N 50°04' W 002°41'3716.7
2018-Apr-05 06:18N 50°18' W 001°48'518.6
2018-Apr-05 06:01N 50°21' W 001°40'1719.1
2018-Apr-05 05:05N 50°28' W 001°16'219.5
2018-Apr-05 04:58N 50°29' W 001°12'919.1
2018-Apr-05 04:30N 50°33' W 000°60'714.3
2018-Apr-05 04:00N 50°40' W 000°59'611.9
2018-Apr-05 03:30N 50°44' W 001°05'714.0
2018-Apr-05 03:01N 50°46' W 001°16'5 9.3
2018-Apr-05 02:30N 50°50' W 001°19'4 7.5
2018-Apr-05 02:00N 50°53' W 001°24'0 0.0
2018-Apr-05 01:29N 50°53' W 001°24'0 0.0
2018-Apr-05 00:59N 50°53' W 001°24'0 0.0
2018-Apr-05 00:29N 50°53' W 001°24'0 0.0
2018-Apr-04 23:59N 50°53' W 001°24'0 0.0
2018-Apr-04 23:29N 50°53' W 001°24'0 0.0
2018-Apr-04 22:59N 50°53' W 001°24'0 0.0
2018-Apr-04 22:29N 50°53' W 001°24'0 0.0
2018-Apr-04 21:59N 50°53' W 001°24'0 0.0
2018-Apr-04 21:29N 50°53' W 001°24'0 0.0
2018-Apr-04 20:59N 50°53' W 001°24'0 0.0
2018-Apr-04 20:29N 50°53' W 001°24'0 0.0
2018-Apr-04 19:59N 50°53' W 001°24'0 0.0
2018-Apr-04 19:29N 50°53' W 001°24'0 0.0
2018-Apr-04 18:59N 50°53' W 001°24'0 0.0
2018-Apr-04 18:29N 50°53' W 001°24'0 0.0
2018-Apr-04 17:59N 50°53' W 001°24'0 0.0
2018-Apr-04 17:29N 50°53' W 001°24'0 0.0
2018-Apr-04 16:59N 50°53' W 001°24'0 0.0
2018-Apr-04 16:29N 50°53' W 001°24'0 0.0
2018-Apr-04 15:59N 50°53' W 001°24'0 0.5
2018-Apr-04 15:30N 50°53' W 001°24'3 5.3
2018-Apr-04 15:00N 50°51' W 001°20'4 8.3
2018-Apr-04 14:30N 50°47' W 001°19'611.0
2018-Apr-04 14:01N 50°46' W 001°11'611.0
2018-Apr-04 13:30N 50°44' W 001°03'611.3
2018-Apr-04 13:00N 50°39' W 000°57'3 6.7
2018-Apr-04 12:31N 50°36' W 000°59'2 3.3
2018-Apr-04 12:01N 50°34' W 000°59'2 3.6
2018-Apr-04 11:31N 50°36' W 001°00'2 3.8
2018-Apr-04 11:00N 50°37' W 001°03'0 0.2
2018-Apr-04 10:31N 50°37' W 001°03'0 0.0
2018-Apr-04 10:00N 50°37' W 001°03'0 0.0
2018-Apr-04 09:28N 50°37' W 001°03'0 0.0
2018-Apr-04 08:58N 50°37' W 001°03'0 0.0
2018-Apr-04 08:28N 50°37' W 001°03'0 0.1
2018-Apr-04 07:58N 50°37' W 001°03'0 0.1
2018-Apr-04 07:28N 50°37' W 001°03'0 0.2
2018-Apr-04 06:58N 50°37' W 001°03'0 0.0
2018-Apr-04 06:28N 50°37' W 001°03'0 0.2
2018-Apr-04 05:40N 50°37' W 001°03'0 0.0
2018-Apr-04 05:28N 50°37' W 001°03'0 0.0
2018-Apr-04 04:58N 50°37' W 001°03'0 0.0
2018-Apr-04 04:28N 50°37' W 001°03'0 0.0
2018-Apr-04 03:58N 50°37' W 001°03'0 0.1
2018-Apr-04 03:28N 50°37' W 001°03'0 0.1
2018-Apr-04 02:58N 50°37' W 001°03'0 0.0
2018-Apr-04 02:28N 50°37' W 001°03'0 0.1
2018-Apr-04 01:40N 50°37' W 001°03'0 0.2
2018-Apr-04 01:28N 50°37' W 001°03'0 0.3
2018-Apr-04 01:01N 50°37' W 001°03'3 6.1
2018-Apr-04 00:30N 50°35' W 001°00'915.1
2018-Apr-03 23:53N 50°26' W 000°54'614.7
2018-Apr-03 23:28N 50°21' W 000°49'714.4
2018-Apr-03 22:57N 50°14' W 000°43'814.1
2018-Apr-03 22:22N 50°07' W 000°37'514.0
2018-Apr-03 22:00N 50°03' W 000°33'714.1
2018-Apr-03 21:30N 49°56' W 000°29'714.2
2018-Apr-03 21:00N 49°50' W 000°25'714.4
2018-Apr-03 20:30N 49°43' W 000°21'713.8
2018-Apr-03 20:00N 49°38' W 000°14'815.2
2018-Apr-03 19:30N 49°34' W 000°04'713.4
2018-Apr-03 19:01N 49°29' E 000°04'4 7.7
2018-Apr-03 18:30N 49°28' E 000°10'0 0.8
2018-Apr-03 18:00N 49°29' E 000°10'0 1.0
2018-Apr-03 17:30N 49°29' E 000°11'1 2.0
2018-Apr-03 16:58N 49°28' E 000°13'0 0.0
2018-Apr-03 16:28N 49°28' E 000°13'0 0.0
2018-Apr-03 15:58N 49°28' E 000°13'0 0.0
2018-Apr-03 15:25N 49°28' E 000°13'0 0.0
2018-Apr-03 14:58N 49°28' E 000°13'0 0.0
2018-Apr-03 14:25N 49°28' E 000°13'0 0.0
2018-Apr-03 13:58N 49°28' E 000°13'0 0.0
2018-Apr-03 13:28N 49°28' E 000°13'0 0.0
2018-Apr-03 12:58N 49°28' E 000°13'0 0.0
2018-Apr-03 12:28N 49°28' E 000°13'0 0.0
2018-Apr-03 11:58N 49°28' E 000°13'0 0.0
2018-Apr-03 11:28N 49°28' E 000°13'0 0.0
2018-Apr-03 10:58N 49°28' E 000°13'0 0.0
2018-Apr-03 10:28N 49°28' E 000°13'0 0.0
2018-Apr-03 09:58N 49°28' E 000°13'0 0.0
2018-Apr-03 09:28N 49°28' E 000°13'0 0.0
2018-Apr-03 08:58N 49°28' E 000°13'0 0.0
2018-Apr-03 08:28N 49°28' E 000°13'0 0.0
2018-Apr-03 07:58N 49°28' E 000°13'0 0.0
2018-Apr-03 07:28N 49°28' E 000°13'0 0.0
2018-Apr-03 06:58N 49°28' E 000°13'0 0.0
2018-Apr-03 06:28N 49°28' E 000°13'0 0.0
2018-Apr-03 05:58N 49°28' E 000°13'0 0.0
2018-Apr-03 05:28N 49°28' E 000°13'0 0.0
2018-Apr-03 04:58N 49°28' E 000°13'0 0.0
2018-Apr-03 04:28N 49°28' E 000°13'0 0.0
2018-Apr-03 03:58N 49°28' E 000°13'0 0.0
2018-Apr-03 03:28N 49°28' E 000°13'0 0.0
2018-Apr-03 02:58N 49°28' E 000°13'0 0.0
2018-Apr-03 02:28N 49°28' E 000°13'0 0.0
2018-Apr-03 01:58N 49°28' E 000°13'0 0.0
2018-Apr-03 01:28N 49°28' E 000°13'0 0.0
2018-Apr-03 00:58N 49°28' E 000°13'0 0.0
2018-Apr-03 00:28N 49°28' E 000°13'0 0.0
2018-Apr-02 23:58N 49°28' E 000°13'0 0.0
2018-Apr-02 23:28N 49°28' E 000°13'0 0.0
2018-Apr-02 22:58N 49°28' E 000°13'0 0.0
2018-Apr-02 22:28N 49°28' E 000°13'0 0.0
2018-Apr-02 21:58N 49°28' E 000°13'0 0.0
2018-Apr-02 21:28N 49°28' E 000°13'0 0.0
2018-Apr-02 20:58N 49°28' E 000°13'0 0.0
2018-Apr-02 20:28N 49°28' E 000°13'0 0.0
2018-Apr-02 19:58N 49°28' E 000°13'0 0.0
2018-Apr-02 19:28N 49°28' E 000°13'0 0.0
2018-Apr-02 18:58N 49°28' E 000°13'0 0.0
2018-Apr-02 18:28N 49°28' E 000°13'0 0.0
2018-Apr-02 17:58N 49°28' E 000°13'0 0.0
2018-Apr-02 17:28N 49°28' E 000°13'0 0.0
2018-Apr-02 16:58N 49°28' E 000°13'0 0.0
2018-Apr-02 16:28N 49°28' E 000°13'0 0.0
2018-Apr-02 15:58N 49°28' E 000°13'0 0.0
2018-Apr-02 15:28N 49°28' E 000°13'0 0.0
2018-Apr-02 14:58N 49°28' E 000°13'0 0.0
2018-Apr-02 14:28N 49°28' E 000°13'0 0.0
2018-Apr-02 13:58N 49°28' E 000°13'0 0.0
2018-Apr-02 13:28N 49°28' E 000°13'0 0.0
2018-Apr-02 12:58N 49°28' E 000°13'0 0.0
2018-Apr-02 12:28N 49°28' E 000°13'0 0.0
2018-Apr-02 11:58N 49°28' E 000°13'0 0.0
2018-Apr-02 11:28N 49°28' E 000°13'0 0.0
2018-Apr-02 10:58N 49°28' E 000°13'0 0.0
2018-Apr-02 10:28N 49°28' E 000°13'0 0.0
2018-Apr-02 09:58N 49°28' E 000°13'0 0.0
2018-Apr-02 09:28N 49°28' E 000°13'0 0.0
2018-Apr-02 08:58N 49°28' E 000°13'0 0.0
2018-Apr-02 08:28N 49°28' E 000°13'0 0.0
2018-Apr-02 07:58N 49°28' E 000°13'0 0.0
2018-Apr-02 07:28N 49°28' E 000°13'0 0.0
2018-Apr-02 06:58N 49°28' E 000°13'0 0.0
2018-Apr-02 06:28N 49°28' E 000°13'0 0.0
2018-Apr-02 05:58N 49°28' E 000°13'0 0.0
2018-Apr-02 05:28N 49°28' E 000°13'0 0.0
2018-Apr-02 04:58N 49°28' E 000°13'0 0.0
2018-Apr-02 04:28N 49°28' E 000°13'0 0.0
2018-Apr-02 03:58N 49°28' E 000°13'0 0.0
2018-Apr-02 03:28N 49°28' E 000°13'0 0.0
2018-Apr-02 02:58N 49°28' E 000°13'0 0.0
2018-Apr-02 02:28N 49°28' E 000°13'0 0.0
2018-Apr-02 01:58N 49°28' E 000°13'0 0.0
2018-Apr-02 01:28N 49°28' E 000°13'0 0.0
2018-Apr-02 00:58N 49°28' E 000°13'0 0.0
2018-Apr-02 00:28N 49°28' E 000°13'0 0.0
2018-Apr-01 23:58N 49°28' E 000°13'0 0.0
2018-Apr-01 23:28N 49°28' E 000°13'0 0.0
2018-Apr-01 22:58N 49°28' E 000°13'0 0.0
2018-Apr-01 22:28N 49°28' E 000°13'0 0.0
2018-Apr-01 21:58N 49°28' E 000°13'0 0.0
2018-Apr-01 21:28N 49°28' E 000°13'0 0.0
2018-Apr-01 20:58N 49°28' E 000°13'0 0.0
2018-Apr-01 20:28N 49°28' E 000°13'0 0.0
2018-Apr-01 19:58N 49°28' E 000°13'0 0.0
2018-Apr-01 19:28N 49°28' E 000°13'0 0.0
2018-Apr-01 18:58N 49°28' E 000°13'0 0.0
2018-Apr-01 18:28N 49°28' E 000°13'0 0.0
2018-Apr-01 17:58N 49°28' E 000°13'0 0.0
2018-Apr-01 17:28N 49°28' E 000°13'0 0.0
2018-Apr-01 16:58N 49°28' E 000°13'0 0.0
2018-Apr-01 16:28N 49°28' E 000°13'0 0.0
2018-Apr-01 15:58N 49°28' E 000°13'0 0.0
2018-Apr-01 15:28N 49°28' E 000°13'0 0.0
2018-Apr-01 14:58N 49°28' E 000°13'0 0.0
2018-Apr-01 14:28N 49°28' E 000°13'0 0.0
2018-Apr-01 13:58N 49°28' E 000°13'0 0.0
2018-Apr-01 13:28N 49°28' E 000°13'0 0.0
2018-Apr-01 12:58N 49°28' E 000°13'0 0.0
2018-Apr-01 12:28N 49°28' E 000°13'0 0.0
2018-Apr-01 11:58N 49°28' E 000°13'0 0.0
2018-Apr-01 11:28N 49°28' E 000°13'0 0.0
2018-Apr-01 10:58N 49°28' E 000°13'0 0.0
2018-Apr-01 10:28N 49°28' E 000°13'0 0.0
2018-Apr-01 09:58N 49°28' E 000°13'0 0.0
2018-Apr-01 09:28N 49°28' E 000°13'0 0.0
2018-Apr-01 08:58N 49°28' E 000°13'0 0.0
2018-Apr-01 08:28N 49°28' E 000°13'0 0.0
2018-Apr-01 07:58N 49°28' E 000°13'0 0.0
2018-Apr-01 07:28N 49°28' E 000°13'0 0.0
2018-Apr-01 06:58N 49°28' E 000°13'0 0.0
2018-Apr-01 06:28N 49°28' E 000°13'0 0.0
2018-Apr-01 05:58N 49°28' E 000°13'0 0.0
2018-Apr-01 05:28N 49°28' E 000°13'0 0.0
2018-Apr-01 04:58N 49°28' E 000°13'0 0.0
2018-Apr-01 04:28N 49°28' E 000°13'0 0.0
2018-Apr-01 03:58N 49°28' E 000°13'0 0.0
2018-Apr-01 03:28N 49°28' E 000°13'1 2.6
2018-Apr-01 03:00N 49°29' E 000°11'0 0.6
2018-Apr-01 02:30N 49°29' E 000°10'1 2.3
2018-Apr-01 02:00N 49°28' E 000°09'5 9.7
2018-Apr-01 01:31N 49°30' E 000°02'611.9
2018-Apr-01 01:01N 49°32' W 000°07'611.4
2018-Apr-01 00:31N 49°33' W 000°15'612.5
2018-Apr-01 00:00N 49°38' W 000°21'714.1
2018-Mar-31 23:30N 49°45' W 000°24'915.5
2018-Mar-31 22:53N 49°54' W 000°19'616.0
2018-Mar-31 22:29N 50°00' W 000°15'816.2
2018-Mar-31 22:00N 50°08' W 000°11'916.1
2018-Mar-31 21:26N 50°16' W 000°08'715.6
2018-Mar-31 20:58N 50°23' W 000°04'714.3
2018-Mar-31 20:30N 50°28' E 000°03'815.4
2018-Mar-31 20:00N 50°30' E 000°15'815.4
2018-Mar-31 19:30N 50°32' E 000°27'815.3
2018-Mar-31 19:00N 50°35' E 000°38'815.6
2018-Mar-31 18:30N 50°39' E 000°48'816.0
2018-Mar-31 18:00N 50°44' E 000°58'1916.3
2018-Mar-31 16:52N 50°56' E 001°20'617.7
2018-Mar-31 16:30N 51°01' E 001°27'816.9
2018-Mar-31 16:00N 51°07' E 001°37'816.5
2018-Mar-31 15:30N 51°13' E 001°46'816.2
2018-Mar-31 15:00N 51°20' E 001°53'714.6
2018-Mar-31 14:30N 51°25' E 002°01'816.8
2018-Mar-31 14:00N 51°22' E 002°13'815.4
2018-Mar-31 13:29N 51°22' E 002°26'715.4
2018-Mar-31 13:00N 51°23' E 002°38'713.5
2018-Mar-31 12:29N 51°22' E 002°49'715.1
2018-Mar-31 12:00N 51°24' E 003°01'612.5
2018-Mar-31 11:30N 51°23' E 003°10'3 6.3
2018-Mar-31 11:00N 51°20' E 003°13'0 0.0
2018-Mar-31 10:30N 51°20' E 003°13'1 2.0
2018-Mar-31 09:58N 51°19' E 003°14'0 0.0
2018-Mar-31 09:28N 51°19' E 003°14'0 0.0
2018-Mar-31 08:58N 51°19' E 003°14'0 0.0
2018-Mar-31 08:25N 51°19' E 003°14'0 0.0
2018-Mar-31 07:58N 51°19' E 003°14'0 0.0
2018-Mar-31 07:28N 51°19' E 003°14'0 0.0
2018-Mar-31 06:58N 51°19' E 003°14'0 0.0
2018-Mar-31 06:28N 51°19' E 003°14'0 0.0
2018-Mar-31 05:58N 51°19' E 003°14'0 0.0
2018-Mar-31 05:28N 51°19' E 003°14'0 0.0
2018-Mar-31 04:58N 51°19' E 003°14'0 0.0
2018-Mar-31 04:28N 51°19' E 003°14'0 0.0
2018-Mar-31 03:55N 51°19' E 003°14'0 0.0
2018-Mar-31 03:28N 51°19' E 003°14'0 0.0
2018-Mar-31 02:58N 51°19' E 003°14'0 0.0
2018-Mar-31 02:28N 51°19' E 003°14'0 0.0
2018-Mar-31 01:58N 51°19' E 003°14'0 0.0
2018-Mar-31 01:28N 51°19' E 003°14'0 0.0
2018-Mar-31 00:58N 51°19' E 003°14'0 0.0
2018-Mar-31 00:28N 51°19' E 003°14'0 0.0
2018-Mar-30 23:58N 51°19' E 003°14'0 0.0
2018-Mar-30 23:28N 51°19' E 003°14'0 0.0
2018-Mar-30 22:58N 51°19' E 003°14'0 0.0
2018-Mar-30 22:28N 51°19' E 003°14'0 0.0
2018-Mar-30 21:55N 51°19' E 003°14'0 0.0
2018-Mar-30 21:28N 51°19' E 003°14'0 0.0
2018-Mar-30 20:58N 51°19' E 003°14'0 0.0
2018-Mar-30 20:28N 51°19' E 003°14'0 0.0
2018-Mar-30 19:58N 51°19' E 003°14'0 0.0
2018-Mar-30 19:28N 51°19' E 003°14'0 0.0
2018-Mar-30 18:58N 51°19' E 003°14'0 0.0
2018-Mar-30 18:28N 51°19' E 003°14'0 0.0
2018-Mar-30 17:55N 51°19' E 003°14'0 0.0
2018-Mar-30 17:28N 51°19' E 003°14'0 0.0
2018-Mar-30 16:58N 51°19' E 003°14'0 0.0
2018-Mar-30 16:28N 51°19' E 003°14'0 0.0
2018-Mar-30 15:58N 51°19' E 003°14'0 0.0
2018-Mar-30 15:28N 51°19' E 003°14'0 0.0
2018-Mar-30 14:58N 51°19' E 003°14'0 0.0
2018-Mar-30 14:28N 51°19' E 003°14'0 0.0
2018-Mar-30 13:58N 51°19' E 003°14'0 0.0
2018-Mar-30 13:28N 51°19' E 003°14'0 0.0
2018-Mar-30 12:58N 51°19' E 003°14'0 0.0
2018-Mar-30 12:28N 51°19' E 003°14'0 0.0
2018-Mar-30 11:58N 51°19' E 003°14'0 0.0
2018-Mar-30 11:28N 51°19' E 003°14'0 0.0
2018-Mar-30 10:58N 51°19' E 003°14'0 0.0
2018-Mar-30 10:28N 51°19' E 003°14'0 0.0
2018-Mar-30 09:58N 51°19' E 003°14'0 0.0
2018-Mar-30 09:28N 51°19' E 003°14'0 0.0
2018-Mar-30 08:58N 51°19' E 003°14'0 0.0
2018-Mar-30 08:28N 51°19' E 003°14'0 0.0
2018-Mar-30 07:58N 51°19' E 003°14'0 0.0
2018-Mar-30 07:28N 51°19' E 003°14'0 0.0
2018-Mar-30 06:58N 51°19' E 003°14'0 0.0
2018-Mar-30 06:28N 51°19' E 003°14'0 0.0
2018-Mar-30 05:55N 51°19' E 003°14'0 0.0
2018-Mar-30 05:28N 51°19' E 003°14'0 0.0
2018-Mar-30 04:58N 51°19' E 003°14'0 0.0
2018-Mar-30 04:28N 51°19' E 003°14'0 0.0
2018-Mar-30 03:58N 51°19' E 003°14'0 0.0
2018-Mar-30 03:28N 51°19' E 003°14'0 0.0
2018-Mar-30 02:58N 51°19' E 003°14'0 0.0
2018-Mar-30 02:28N 51°19' E 003°14'0 0.0
2018-Mar-30 01:58N 51°19' E 003°14'0 0.0
2018-Mar-30 01:28N 51°19' E 003°14'0 0.0
2018-Mar-30 00:58N 51°19' E 003°14'0 0.0
2018-Mar-30 00:28N 51°19' E 003°14'0 0.0
2018-Mar-29 23:58N 51°19' E 003°14'  

Dump ship's entire track history